createdAt,value
2019-04-28T00:02:11.812Z,99606.92
2019-04-28T00:04:44.324Z,99603.09
2019-04-28T00:07:16.718Z,99606.28
2019-04-28T00:09:51.022Z,99609.63
2019-04-28T00:12:23.581Z,99605.73
2019-04-28T00:14:56.003Z,99608.98
2019-04-28T00:17:28.470Z,99612.36
2019-04-28T00:20:02.541Z,99613.56
2019-04-28T00:22:51.509Z,99614.09
2019-04-28T00:25:27.421Z,99613.84
2019-04-28T00:28:01.542Z,99617.36
2019-04-28T00:30:34.291Z,99620.81
2019-04-28T00:33:06.690Z,99617.66
2019-04-28T00:35:39.106Z,99615.54
2019-04-28T00:38:13.080Z,99618.84
2019-04-28T00:40:45.654Z,99625.12
2019-04-28T00:43:18.063Z,99617.66
2019-04-28T00:45:51.278Z,99616.07
2019-04-28T00:48:23.879Z,99615.27
2019-04-28T00:50:56.370Z,99617.03
2019-04-28T00:53:31.008Z,99614.58
2019-04-28T00:56:02.916Z,99611.29
2019-04-28T00:58:35.301Z,99609.52
2019-04-28T01:01:11.380Z,99610.37
2019-04-28T01:03:44.232Z,99613.84
2019-04-28T01:06:16.646Z,99615.22
2019-04-28T01:08:49.215Z,99606.91
2019-04-28T01:11:21.832Z,99609.57
2019-04-28T01:13:54.206Z,99608.41
2019-04-28T01:16:33.562Z,99606.16
2019-04-28T01:19:13.898Z,99607.06
2019-04-28T01:22:05.144Z,99606.45
2019-04-28T01:24:39.754Z,99607.41
2019-04-28T01:27:50.482Z,99604.58
2019-04-28T01:30:57.258Z,99606.31
2019-04-28T01:33:54.373Z,99603.59
2019-04-28T01:36:26.797Z,99606.09
2019-04-28T01:38:59.981Z,99603.74
2019-04-28T01:41:32.494Z,99605.34
2019-04-28T01:44:04.930Z,99603.58
2019-04-28T01:46:37.368Z,99602.80
2019-04-28T01:49:09.815Z,99609.66
2019-04-28T01:51:42.227Z,99610.86
2019-04-28T01:54:14.622Z,99610.49
2019-04-28T01:56:47.055Z,99611.87
2019-04-28T01:59:20.102Z,99620.08
2019-04-28T02:01:52.561Z,99618.41
2019-04-28T02:04:25.038Z,99618.73
2019-04-28T02:06:57.457Z,99620.13
2019-04-28T02:09:29.954Z,99620.30
2019-04-28T02:12:02.391Z,99619.95
2019-04-28T02:14:34.771Z,99622.59
2019-04-28T02:17:07.195Z,99620.05
2019-04-28T02:19:40.923Z,99618.42
2019-04-28T02:22:22.696Z,99621.03
2019-04-28T02:24:55.072Z,99624.00
2019-04-28T02:27:27.512Z,99624.74
2019-04-28T02:30:00.343Z,99624.89
2019-04-28T02:32:33.093Z,99623.84
2019-04-28T02:35:06.578Z,99625.44
2019-04-28T02:37:40.593Z,99622.80
2019-04-28T02:40:13.088Z,99624.07
2019-04-28T02:42:45.441Z,99627.05
2019-04-28T02:45:21.727Z,99619.59
2019-04-28T02:47:57.659Z,99617.72
2019-04-28T02:50:41.145Z,99622.98
2019-04-28T02:53:27.641Z,99629.74
2019-04-28T02:56:00.855Z,99627.58
2019-04-28T02:58:33.454Z,99623.86
2019-04-28T03:01:18.461Z,99619.50
2019-04-28T03:03:41.081Z,99627.65
2019-04-28T03:06:13.554Z,99622.14
2019-04-28T03:08:45.952Z,99622.63
2019-04-28T03:11:20.375Z,99620.66
2019-04-28T03:13:52.480Z,99616.34
2019-04-28T03:16:24.900Z,99614.48
2019-04-28T03:18:57.297Z,99624.13
2019-04-28T03:21:31.251Z,99617.75
2019-04-28T03:24:03.910Z,99624.27
2019-04-28T03:26:45.990Z,99628.67
2019-04-28T03:29:26.355Z,99627.59
2019-04-28T03:32:32.857Z,99629.96
2019-04-28T03:34:53.859Z,99626.92
2019-04-28T03:37:24.796Z,99625.30
2019-04-28T03:39:57.192Z,99624.39
2019-04-28T03:42:31.402Z,99624.62
2019-04-28T03:45:05.673Z,99623.80
2019-04-28T03:47:40.486Z,99620.14
2019-04-28T03:50:12.295Z,99619.87
2019-04-28T03:52:44.724Z,99617.77
2019-04-28T03:55:17.115Z,99617.15
2019-04-28T03:57:51.225Z,99621.59
2019-04-28T04:00:23.630Z,99619.66
2019-04-28T04:02:56.048Z,99617.66
2019-04-28T04:05:30.618Z,99618.49
2019-04-28T04:08:02.574Z,99625.33
2019-04-28T04:10:41.027Z,99619.14
2019-04-28T04:13:20.069Z,99618.70
2019-04-28T04:16:11.305Z,99620.48
2019-04-28T04:18:46.836Z,99622.03
2019-04-28T04:21:21.373Z,99629.73
2019-04-28T04:23:53.372Z,99632.18
2019-04-28T04:26:25.756Z,99635.23
2019-04-28T04:29:00.704Z,99639.11
2019-04-28T04:31:32.296Z,99642.66
2019-04-28T04:34:04.712Z,99648.48
2019-04-28T04:36:41.417Z,99650.30
2019-04-28T04:39:12.315Z,99650.69
2019-04-28T04:41:44.777Z,99655.80
2019-04-28T04:44:17.237Z,99653.22
2019-04-28T04:46:50.852Z,99656.58
2019-04-28T04:49:23.561Z,99657.77
2019-04-28T04:51:56.037Z,99663.36
2019-04-28T04:54:32.025Z,99660.44
2019-04-28T04:57:02.556Z,99664.34
2019-04-28T04:59:36.295Z,99659.53
2019-04-28T05:02:32.991Z,99663.87
2019-04-28T05:05:18.141Z,99664.55
2019-04-28T05:07:50.796Z,99666.58
2019-04-28T05:10:23.280Z,99670.20
2019-04-28T05:12:55.715Z,99672.22
2019-04-28T05:15:28.108Z,99665.84
2019-04-28T05:18:00.465Z,99667.80
2019-04-28T05:20:32.862Z,99667.38
2019-04-28T05:23:30.287Z,99669.09
2019-04-28T05:26:07.983Z,99671.89
2019-04-28T05:28:43.311Z,99672.17
2019-04-28T05:31:19.525Z,99674.91
2019-04-28T05:33:45.361Z,99675.83
2019-04-28T05:36:17.833Z,99672.30
2019-04-28T05:38:50.355Z,99669.76
2019-04-28T05:41:22.747Z,99669.52
2019-04-28T05:43:55.173Z,99669.96
2019-04-28T05:46:27.510Z,99672.61
2019-04-28T05:49:21.865Z,99670.80
2019-04-28T05:51:56.006Z,99677.59
2019-04-28T05:54:44.789Z,99680.39
2019-04-28T05:57:30.558Z,99679.31
2019-04-28T06:00:41.802Z,99678.85
2019-04-28T06:03:16.174Z,99680.43
2019-04-28T06:05:49.712Z,99682.67
2019-04-28T06:08:30.338Z,99676.62
2019-04-28T06:11:22.876Z,99673.25
2019-04-28T06:13:55.456Z,99677.90
2019-04-28T06:16:30.239Z,99683.05
2019-04-28T06:19:02.079Z,99683.64
2019-04-28T06:21:34.489Z,99685.50
2019-04-28T06:24:06.936Z,99688.92
2019-04-28T06:26:39.349Z,99690.60
2019-04-28T06:29:11.829Z,99692.00
2019-04-28T06:31:44.274Z,99688.06
2019-04-28T06:34:16.745Z,99688.41
2019-04-28T06:36:49.178Z,99693.19
2019-04-28T06:39:21.706Z,99694.81
2019-04-28T06:41:54.105Z,99695.19
2019-04-28T06:44:26.595Z,99696.19
2019-04-28T06:46:58.994Z,99698.80
2019-04-28T06:49:31.414Z,99696.09
2019-04-28T06:52:03.873Z,99704.14
2019-04-28T06:54:36.290Z,99701.70
2019-04-28T06:57:08.695Z,99701.70
2019-04-28T06:59:41.103Z,99704.64
2019-04-28T07:02:13.524Z,99705.45
2019-04-28T07:04:45.942Z,99702.59
2019-04-28T07:07:18.276Z,99705.69
2019-04-28T07:09:50.697Z,99712.73
2019-04-28T07:12:23.117Z,99703.63
2019-04-28T07:14:55.544Z,99704.02
2019-04-28T07:17:27.938Z,99707.62
2019-04-28T07:20:19.282Z,99702.30
2019-04-28T07:22:51.760Z,99701.13
2019-04-28T07:25:24.255Z,99704.92
2019-04-28T07:27:59.292Z,99707.15
2019-04-28T07:30:31.739Z,99703.84
2019-04-28T07:33:04.136Z,99707.97
2019-04-28T07:35:36.591Z,99708.82
2019-04-28T07:38:08.948Z,99703.93
2019-04-28T07:40:41.463Z,99709.84
2019-04-28T07:43:14.034Z,99713.06
2019-04-28T07:45:46.484Z,99712.05
2019-04-28T07:48:18.878Z,99712.97
2019-04-28T07:50:51.327Z,99713.08
2019-04-28T07:53:28.789Z,99710.38
2019-04-28T07:56:01.246Z,99719.39
2019-04-28T07:58:33.713Z,99720.73
2019-04-28T08:01:07.891Z,99724.14
2019-04-28T08:03:49.423Z,99723.09
2019-04-28T08:06:14.459Z,99721.23
2019-04-28T08:08:46.854Z,99718.23
2019-04-28T08:11:19.843Z,99721.98
2019-04-28T08:13:52.414Z,99722.13
2019-04-28T08:16:24.909Z,99721.55
2019-04-28T08:18:57.478Z,99720.75
2019-04-28T08:21:30.005Z,99721.89
2019-04-28T08:24:02.405Z,99720.77
2019-04-28T08:26:36.378Z,99717.77
2019-04-28T08:29:08.899Z,99722.89
2019-04-28T08:31:54.423Z,99719.85
2019-04-28T08:34:26.869Z,99722.58
2019-04-28T08:36:59.301Z,99719.64
2019-04-28T08:39:31.697Z,99718.30
2019-04-28T08:42:04.113Z,99720.44
2019-04-28T08:44:36.521Z,99715.22
2019-04-28T08:47:08.936Z,99710.84
2019-04-28T08:49:41.331Z,99711.05
2019-04-28T08:52:13.830Z,99712.97
2019-04-28T08:54:47.353Z,99709.91
2019-04-28T08:57:19.771Z,99715.53
2019-04-28T08:59:52.169Z,99716.38
2019-04-28T09:02:24.861Z,99718.09
2019-04-28T09:04:57.363Z,99722.78
2019-04-28T09:07:29.859Z,99719.89
2019-04-28T09:10:02.262Z,99722.09
2019-04-28T09:12:34.754Z,99731.33
2019-04-28T09:15:07.397Z,99732.13
2019-04-28T09:17:39.859Z,99729.03
2019-04-28T09:20:12.265Z,99730.86
2019-04-28T09:22:44.689Z,99735.38
2019-04-28T09:25:17.080Z,99735.96
2019-04-28T09:27:49.510Z,99740.97
2019-04-28T09:30:21.995Z,99743.05
2019-04-28T09:32:54.424Z,99741.02
2019-04-28T09:35:26.818Z,99744.37
2019-04-28T09:37:59.243Z,99748.17
2019-04-28T09:40:31.642Z,99746.40
2019-04-28T09:43:32.247Z,99742.66
2019-04-28T09:46:08.271Z,99740.52
2019-04-28T09:48:40.694Z,99744.88
2019-04-28T09:51:13.092Z,99747.03
2019-04-28T09:53:45.520Z,99743.14
2019-04-28T09:56:17.917Z,99740.58
2019-04-28T09:58:50.367Z,99737.38
2019-04-28T10:01:22.761Z,99737.00
2019-04-28T10:03:55.187Z,99738.06
2019-04-28T10:06:27.581Z,99741.05
2019-04-28T10:08:59.975Z,99733.27
2019-04-28T10:11:32.368Z,99732.09
2019-04-28T10:14:04.859Z,99737.24
2019-04-28T10:16:37.260Z,99740.40
2019-04-28T10:19:09.766Z,99743.16
2019-04-28T10:21:42.158Z,99746.05
2019-04-28T10:24:14.586Z,99745.78
2019-04-28T10:26:48.057Z,99742.26
2019-04-28T10:29:20.779Z,99746.41
2019-04-28T10:31:54.601Z,99742.05
2019-04-28T10:34:27.034Z,99742.75
2019-04-28T10:36:59.429Z,99739.70
2019-04-28T10:39:41.160Z,99733.42
2019-04-28T10:42:13.745Z,99724.22
2019-04-28T10:44:47.819Z,99718.46
2019-04-28T10:47:20.650Z,99716.41
2019-04-28T10:49:53.080Z,99719.76
2019-04-28T10:52:25.483Z,99717.50
2019-04-28T10:54:57.899Z,99718.91
2019-04-28T10:57:30.300Z,99722.88
2019-04-28T11:00:03.094Z,99725.09
2019-04-28T11:02:37.151Z,99718.30
2019-04-28T11:05:21.080Z,99717.25
2019-04-28T11:07:54.162Z,99712.91
2019-04-28T11:10:26.585Z,99715.31
2019-04-28T11:12:59.002Z,99717.27
2019-04-28T11:15:34.703Z,99719.94
2019-04-28T11:18:09.504Z,99717.94
2019-04-28T11:20:41.941Z,99717.61
2019-04-28T11:23:14.344Z,99722.38
2019-04-28T11:25:46.829Z,99727.67
2019-04-28T11:28:19.243Z,99722.44
2019-04-28T11:30:51.693Z,99720.99
2019-04-28T11:33:59.959Z,99721.36
2019-04-28T11:36:32.779Z,99715.95
2019-04-28T11:39:07.373Z,99712.11
2019-04-28T11:41:41.397Z,99702.91
2019-04-28T11:44:13.879Z,99706.08
2019-04-28T11:46:46.385Z,99705.27
2019-04-28T11:49:19.753Z,99705.74
2019-04-28T11:51:52.171Z,99700.16
2019-04-28T11:54:24.723Z,99699.78
2019-04-28T11:56:57.143Z,99698.80
2019-04-28T11:59:29.646Z,99695.20
2019-04-28T12:02:02.141Z,99699.03
2019-04-28T12:04:34.535Z,99693.97
2019-04-28T12:07:06.955Z,99695.69
2019-04-28T12:10:03.834Z,99699.81
2019-04-28T12:12:52.785Z,99699.92
2019-04-28T12:15:53.225Z,99700.88
2019-04-28T12:18:52.761Z,99701.73
2019-04-28T12:21:25.174Z,99700.24
2019-04-28T12:23:57.572Z,99695.75
2019-04-28T12:26:30.036Z,99691.86
2019-04-28T12:29:02.436Z,99698.43
2019-04-28T12:31:34.885Z,99688.76
2019-04-28T12:34:07.294Z,99689.83
2019-04-28T12:36:39.721Z,99690.47
2019-04-28T12:39:12.148Z,99690.44
2019-04-28T12:41:44.571Z,99687.48
2019-04-28T12:44:16.970Z,99682.86
2019-04-28T12:46:49.444Z,99681.87
2019-04-28T12:49:27.321Z,99676.37
2019-04-28T12:51:59.753Z,99680.99
2019-04-28T12:54:34.012Z,99676.91
2019-04-28T12:57:06.448Z,99675.11
2019-04-28T12:59:44.600Z,99675.64
2019-04-28T13:02:54.096Z,99681.13
2019-04-28T13:05:26.569Z,99676.27
2019-04-28T13:07:58.996Z,99679.73
2019-04-28T13:10:31.406Z,99673.48
2019-04-28T13:13:03.860Z,99677.02
2019-04-28T13:15:36.252Z,99674.72
2019-04-28T13:18:08.671Z,99672.95
2019-04-28T13:20:41.072Z,99672.91
2019-04-28T13:23:13.497Z,99671.86
2019-04-28T13:25:45.982Z,99669.08
2019-04-28T13:28:18.400Z,99672.19
2019-04-28T13:30:50.829Z,99670.06
2019-04-28T13:33:23.272Z,99669.17
2019-04-28T13:35:55.687Z,99666.84
2019-04-28T13:38:28.100Z,99661.38
2019-04-28T13:41:00.493Z,99661.64
2019-04-28T13:43:32.917Z,99657.36
2019-04-28T13:46:05.421Z,99656.55
2019-04-28T13:48:37.822Z,99655.00
2019-04-28T13:51:10.256Z,99651.63
2019-04-28T13:53:42.680Z,99653.43
2019-04-28T13:56:15.089Z,99651.24
2019-04-28T13:59:06.372Z,99650.16
2019-04-28T14:01:57.684Z,99647.00
2019-04-28T14:05:04.386Z,99643.16
2019-04-28T14:07:36.822Z,99644.45
2019-04-28T14:10:09.371Z,99637.94
2019-04-28T14:12:41.804Z,99635.89
2019-04-28T14:15:14.236Z,99628.84
2019-04-28T14:17:47.117Z,99625.36
2019-04-28T14:20:19.701Z,99621.91
2019-04-28T14:22:53.032Z,99619.78
2019-04-28T14:25:25.414Z,99618.97
2019-04-28T14:27:57.904Z,99615.56
2019-04-28T14:30:30.378Z,99616.56
2019-04-28T14:33:02.834Z,99615.45
2019-04-28T14:35:35.282Z,99613.84
2019-04-28T14:38:08.039Z,99610.20
2019-04-28T14:40:40.402Z,99612.98
2019-04-28T14:43:12.932Z,99608.69
2019-04-28T14:45:45.785Z,99605.37
2019-04-28T14:48:18.211Z,99603.49
2019-04-28T14:50:50.603Z,99602.37
2019-04-28T14:53:23.040Z,99599.33
2019-04-28T14:55:56.523Z,99598.20
2019-04-28T14:58:28.960Z,99607.63
2019-04-28T15:01:08.517Z,99611.00
2019-04-28T15:03:43.792Z,99606.47
2019-04-28T15:06:28.157Z,99613.63
2019-04-28T15:09:15.545Z,99618.61
2019-04-28T15:11:58.026Z,99617.33
2019-04-28T15:14:30.550Z,99615.79
2019-04-28T15:17:03.160Z,99616.75
2019-04-28T15:19:35.615Z,99618.74
2019-04-28T15:22:08.140Z,99620.63
2019-04-28T15:24:40.490Z,99618.66
2019-04-28T15:27:12.892Z,99616.72
2019-04-28T15:29:45.373Z,99614.83
2019-04-28T15:32:17.819Z,99615.54
2019-04-28T15:34:50.318Z,99626.92
2019-04-28T15:37:22.795Z,99625.86
2019-04-28T15:39:55.226Z,99625.81
2019-04-28T15:42:27.643Z,99631.23
2019-04-28T15:45:00.101Z,99626.73
2019-04-28T15:47:32.541Z,99628.70
2019-04-28T15:50:05.052Z,99627.30
2019-04-28T15:52:37.455Z,99628.75
2019-04-28T15:55:11.994Z,99635.81
2019-04-28T15:57:44.413Z,99636.56
2019-04-28T16:00:16.943Z,99637.80
2019-04-28T16:02:49.403Z,99638.23
2019-04-28T16:05:21.897Z,99638.82
2019-04-28T16:07:54.645Z,99641.50
2019-04-28T16:10:27.067Z,99648.89
2019-04-28T16:12:59.624Z,99651.36
2019-04-28T16:15:32.073Z,99655.76
2019-04-28T16:18:04.531Z,99661.91
2019-04-28T16:20:36.960Z,99659.14
2019-04-28T16:23:09.404Z,99655.61
2019-04-28T16:25:41.849Z,99655.65
2019-04-28T16:28:14.262Z,99657.08
2019-04-28T16:30:46.723Z,99659.81
2019-04-28T16:33:19.341Z,99659.16
2019-04-28T16:35:51.787Z,99656.50
2019-04-28T16:38:25.258Z,99654.38
2019-04-28T16:40:57.675Z,99656.56
2019-04-28T16:43:30.196Z,99656.89
2019-04-28T16:46:02.636Z,99654.98
2019-04-28T16:48:35.131Z,99651.67
2019-04-28T16:51:07.544Z,99655.60
2019-04-28T16:53:39.978Z,99661.35
2019-04-28T16:56:25.831Z,99665.11
2019-04-28T16:59:17.379Z,99663.56
2019-04-28T17:02:07.826Z,99667.80
2019-04-28T17:04:43.500Z,99671.42
2019-04-28T17:07:16.232Z,99679.22
2019-04-28T17:09:48.823Z,99679.06
2019-04-28T17:12:21.336Z,99678.70
2019-04-28T17:14:53.745Z,99683.33
2019-04-28T17:17:26.164Z,99682.33
2019-04-28T17:19:58.853Z,99684.52
2019-04-28T17:22:31.276Z,99683.46
2019-04-28T17:25:03.953Z,99686.25
2019-04-28T17:27:36.369Z,99686.55
2019-04-28T17:30:10.602Z,99689.91
2019-04-28T17:32:43.392Z,99691.48
2019-04-28T17:35:16.092Z,99690.36
2019-04-28T17:37:48.606Z,99691.11
2019-04-28T17:40:22.062Z,99693.30
2019-04-28T17:42:56.169Z,99697.05
2019-04-28T17:45:28.828Z,99700.52
2019-04-28T17:48:07.875Z,99701.48
2019-04-28T17:50:40.559Z,99703.67
2019-04-28T17:53:17.290Z,99705.59
2019-04-28T17:55:49.686Z,99707.78
2019-04-28T17:58:22.124Z,99713.17
2019-04-28T18:01:29.415Z,99715.20
2019-04-28T18:04:19.716Z,99721.77
2019-04-28T18:06:57.777Z,99727.70
2019-04-28T18:09:30.731Z,99727.59
2019-04-28T18:12:03.370Z,99736.66
2019-04-28T18:14:39.717Z,99743.55
2019-04-28T18:17:39.769Z,99745.30
2019-04-28T18:20:12.596Z,99745.94
2019-04-28T18:22:45.017Z,99750.11
2019-04-28T18:25:17.589Z,99754.86
2019-04-28T18:27:50.141Z,99757.31
2019-04-28T18:30:24.493Z,99761.56
2019-04-28T18:33:25.247Z,99768.62
2019-04-28T18:36:04.299Z,99772.66
2019-04-28T18:38:43.493Z,99775.17
2019-04-28T18:41:33.629Z,99780.11
2019-04-28T18:44:14.146Z,99777.75
2019-04-28T18:46:46.567Z,99781.91
2019-04-28T18:49:21.018Z,99783.30
2019-04-28T18:51:53.108Z,99792.47
2019-04-28T18:54:25.515Z,99791.88
2019-04-28T18:56:57.927Z,99794.00
2019-04-28T18:59:30.363Z,99803.66
2019-04-28T19:02:27.578Z,99807.78
2019-04-28T19:04:59.996Z,99811.45
2019-04-28T19:07:49.807Z,99812.36
2019-04-28T19:10:44.183Z,99818.91
2019-04-28T19:13:20.622Z,99814.52
2019-04-28T19:16:17.743Z,99819.20
2019-04-28T19:18:51.456Z,99821.48
2019-04-28T19:21:23.935Z,99828.44
2019-04-28T19:23:56.355Z,99830.69
2019-04-28T19:26:28.747Z,99833.90
2019-04-28T19:29:01.349Z,99828.77
2019-04-28T19:31:33.863Z,99831.27
2019-04-28T19:34:06.296Z,99830.69
2019-04-28T19:36:38.695Z,99828.07
2019-04-28T19:39:11.195Z,99828.38
2019-04-28T19:41:45.206Z,99824.81
2019-04-28T19:44:17.603Z,99823.16
2019-04-28T19:46:50.006Z,99828.74
2019-04-28T19:49:22.502Z,99826.83
2019-04-28T19:51:54.911Z,99825.39
2019-04-28T19:54:31.190Z,99827.88
2019-04-28T19:57:22.612Z,99825.37
2019-04-28T20:00:12.802Z,99825.71
2019-04-28T20:02:46.879Z,99830.98
2019-04-28T20:05:19.372Z,99832.66
2019-04-28T20:07:51.776Z,99839.39
2019-04-28T20:10:24.242Z,99846.80
2019-04-28T20:12:56.817Z,99851.52
2019-04-28T20:15:29.237Z,99849.80
2019-04-28T20:18:02.406Z,99855.33
2019-04-28T20:20:34.945Z,99867.53
2019-04-28T20:23:07.523Z,99871.45
2019-04-28T20:25:40.015Z,99872.20
2019-04-28T20:28:12.407Z,99874.53
2019-04-28T20:30:46.903Z,99873.28
2019-04-28T20:33:19.395Z,99879.54
2019-04-28T20:35:56.475Z,99885.34
2019-04-28T20:38:31.448Z,99888.28
2019-04-28T20:41:09.005Z,99889.48
2019-04-28T20:43:41.340Z,99889.36
2019-04-28T20:46:13.837Z,99883.55
2019-04-28T20:48:46.411Z,99896.11
2019-04-28T20:51:18.857Z,99896.14
2019-04-28T20:53:51.328Z,99894.42
2019-04-28T20:56:23.859Z,99899.05
2019-04-28T20:58:56.259Z,99905.20
2019-04-28T21:01:28.682Z,99904.17
2019-04-28T21:04:01.086Z,99903.33
2019-04-28T21:06:33.511Z,99906.98
2019-04-28T21:09:09.589Z,99911.03
2019-04-28T21:11:42.489Z,99907.19
2019-04-28T21:14:14.879Z,99905.83
2019-04-28T21:16:47.299Z,99908.40
2019-04-28T21:19:19.769Z,99908.41
2019-04-28T21:21:52.192Z,99909.84
2019-04-28T21:24:24.586Z,99907.23
2019-04-28T21:26:57.046Z,99905.82
2019-04-28T21:29:29.444Z,99905.95
2019-04-28T21:32:01.875Z,99908.92
2019-04-28T21:34:34.270Z,99913.17
2019-04-28T21:37:06.699Z,99913.55
2019-04-28T21:39:39.168Z,99916.95
2019-04-28T21:42:15.073Z,99917.98
2019-04-28T21:45:18.205Z,99916.70
2019-04-28T21:47:50.831Z,99918.37
2019-04-28T21:50:23.226Z,99920.87
2019-04-28T21:52:55.651Z,99926.19
2019-04-28T21:55:28.054Z,99920.00
2019-04-28T21:58:00.483Z,99924.08
2019-04-28T22:00:45.690Z,99928.27
2019-04-28T22:03:26.607Z,99930.63
2019-04-28T22:05:59.048Z,99928.25
2019-04-28T22:08:31.536Z,99932.20
2019-04-28T22:11:04.017Z,99936.27
2019-04-28T22:13:36.455Z,99939.74
2019-04-28T22:16:09.220Z,99941.52
2019-04-28T22:18:41.632Z,99941.55
2019-04-28T22:21:14.041Z,99946.25
2019-04-28T22:23:56.121Z,99937.73
2019-04-28T22:26:48.564Z,99941.98
2019-04-28T22:29:22.246Z,99940.55
2019-04-28T22:31:54.684Z,99946.11
2019-04-28T22:34:27.082Z,99952.49
2019-04-28T22:36:59.506Z,99952.20
2019-04-28T22:39:31.911Z,99950.73
2019-04-28T22:42:04.343Z,99950.21
2019-04-28T22:44:36.734Z,99952.55
2019-04-28T22:47:09.157Z,99959.77
2019-04-28T22:49:41.553Z,99959.17
2019-04-28T22:52:13.971Z,99963.66
2019-04-28T22:55:08.515Z,99968.05
2019-04-28T22:57:51.047Z,99962.99
2019-04-28T23:00:41.265Z,99967.23
2019-04-28T23:03:19.845Z,99964.92
2019-04-28T23:05:52.242Z,99968.51
2019-04-28T23:08:24.670Z,99971.03
2019-04-28T23:10:57.095Z,99967.62
2019-04-28T23:13:29.515Z,99971.45
2019-04-28T23:16:01.912Z,99970.16
2019-04-28T23:18:34.512Z,99969.42
2019-04-28T23:21:14.832Z,99970.60
2019-04-28T23:23:47.267Z,99967.19
2019-04-28T23:26:19.660Z,99977.27
2019-04-28T23:28:52.085Z,99974.83
2019-04-28T23:31:24.506Z,99976.59
2019-04-28T23:33:56.926Z,99986.02
2019-04-28T23:36:29.319Z,99978.56
2019-04-28T23:39:01.740Z,99975.06
2019-04-28T23:41:43.989Z,99978.34
2019-04-28T23:44:16.412Z,99976.95
2019-04-28T23:46:56.336Z,99972.65
2019-04-28T23:49:29.512Z,99976.88
2019-04-28T23:52:24.052Z,99976.11
2019-04-28T23:54:58.604Z,99975.08
2019-04-28T23:57:30.999Z,99972.84
